createdAt,value
2023-02-03T00:01:48.207Z,8.40
2023-02-03T00:04:16.058Z,8.40
2023-02-03T00:06:43.201Z,10.32
2023-02-03T00:09:10.148Z,8.65
2023-02-03T00:11:37.185Z,9.48
2023-02-03T00:16:32.381Z,8.80
2023-02-03T00:21:25.945Z,6.90
2023-02-03T00:23:52.843Z,7.47
2023-02-03T00:26:19.627Z,10.75
2023-02-03T00:28:47.919Z,6.13
2023-02-03T00:31:20.184Z,7.68
2023-02-03T00:33:47.784Z,10.48
2023-02-03T00:36:14.876Z,13.57
2023-02-03T00:41:09.349Z,7.20
2023-02-03T00:43:36.069Z,12.55
2023-02-03T00:46:02.865Z,8.43
2023-02-03T00:51:05.518Z,7.47
2023-02-03T00:53:33.146Z,7.10
2023-02-03T00:56:01.457Z,5.35
2023-02-03T01:00:58.681Z,5.07
2023-02-03T01:03:25.493Z,6.78
2023-02-03T01:05:52.321Z,7.65
2023-02-03T01:08:20.004Z,7.18
2023-02-03T01:10:46.852Z,4.72
2023-02-03T01:13:13.568Z,6.57
2023-02-03T01:15:47.754Z,5.05
2023-02-03T01:18:15.047Z,5.75
2023-02-03T01:20:41.927Z,7.53
2023-02-03T01:23:08.646Z,4.35
2023-02-03T01:25:36.384Z,4.55
2023-02-03T01:28:03.380Z,9.43
2023-02-03T01:30:30.327Z,4.40
2023-02-03T01:32:57.395Z,3.70
2023-02-03T01:35:25.661Z,7.72
2023-02-03T01:37:52.432Z,5.15
2023-02-03T01:40:19.434Z,3.72
2023-02-03T01:42:46.172Z,3.75
2023-02-03T01:45:13.675Z,3.28
2023-02-03T01:47:48.371Z,2.75
2023-02-03T01:50:38.687Z,4.20
2023-02-03T01:53:10.575Z,3.80
2023-02-03T01:55:42.933Z,7.05
2023-02-03T01:58:16.033Z,4.05
2023-02-03T02:00:43.877Z,3.53
2023-02-03T02:03:11.193Z,3.50
2023-02-03T02:05:47.228Z,3.15
2023-02-03T02:08:15.617Z,4.40
2023-02-03T02:10:42.444Z,4.78
2023-02-03T02:13:09.355Z,5.00
2023-02-03T02:16:11.900Z,2.75
2023-02-03T02:18:57.549Z,5.00
2023-02-03T02:21:50.437Z,4.93
2023-02-03T02:24:37.245Z,4.85
2023-02-03T02:27:12.765Z,3.70
2023-02-03T02:30:07.747Z,4.00
2023-02-03T02:33:02.229Z,3.38
2023-02-03T02:36:05.217Z,4.00
2023-02-03T02:38:31.907Z,2.28
2023-02-03T02:41:26.732Z,3.75
2023-02-03T02:44:07.438Z,2.00
2023-02-03T02:46:42.691Z,3.85
2023-02-03T02:49:20.934Z,3.00
2023-02-03T02:51:49.543Z,2.88
2023-02-03T02:54:22.836Z,2.25
2023-02-03T02:56:57.862Z,2.20
2023-02-03T02:59:24.663Z,2.92
2023-02-03T03:01:51.660Z,3.45
2023-02-03T03:06:58.458Z,2.53
2023-02-03T03:09:35.988Z,1.83
2023-02-03T03:12:29.253Z,2.97
2023-02-03T03:15:04.047Z,4.22
2023-02-03T03:17:42.166Z,1.40
2023-02-03T03:20:15.972Z,2.25
2023-02-03T03:22:50.665Z,2.58
2023-02-03T03:25:21.587Z,2.28
2023-02-03T03:27:59.078Z,2.85
2023-02-03T03:30:29.682Z,1.90
2023-02-03T03:32:58.413Z,4.00
2023-02-03T03:35:32.422Z,2.90
2023-02-03T03:38:09.042Z,1.92
2023-02-03T03:40:43.619Z,2.20
2023-02-03T03:43:25.361Z,2.25
2023-02-03T03:46:03.009Z,2.20
2023-02-03T03:51:10.680Z,2.58
2023-02-03T03:53:40.708Z,3.13
2023-02-03T03:56:14.058Z,2.17
2023-02-03T03:58:45.459Z,2.08
2023-02-03T04:01:15.194Z,2.55
2023-02-03T04:03:49.282Z,3.08
2023-02-03T04:06:16.503Z,1.45
2023-02-03T04:08:43.449Z,1.27
2023-02-03T04:11:10.192Z,2.15
2023-02-03T04:13:37.002Z,1.15
2023-02-03T04:16:03.808Z,3.25
2023-02-03T04:18:30.636Z,1.50
2023-02-03T04:20:57.419Z,2.28
2023-02-03T04:23:24.149Z,1.25
2023-02-03T04:25:50.832Z,2.13
2023-02-03T04:28:17.648Z,2.20
2023-02-03T04:30:44.445Z,2.75
2023-02-03T04:33:11.236Z,3.00
2023-02-03T04:35:37.941Z,1.95
2023-02-03T04:38:04.745Z,1.63
2023-02-03T04:40:33.364Z,1.77
2023-02-03T04:43:07.369Z,2.40
2023-02-03T04:45:34.147Z,2.08
2023-02-03T04:48:00.897Z,1.77
2023-02-03T04:50:27.970Z,2.28
2023-02-03T04:52:58.749Z,3.50
2023-02-03T04:55:25.473Z,2.13
2023-02-03T04:57:56.660Z,2.55
2023-02-03T05:00:23.814Z,2.25
2023-02-03T05:02:50.679Z,1.73
2023-02-03T05:05:17.867Z,2.22
2023-02-03T05:07:44.713Z,2.53
2023-02-03T05:10:11.606Z,1.50
2023-02-03T05:12:38.304Z,2.80
2023-02-03T05:15:05.461Z,2.58
2023-02-03T05:17:32.283Z,3.53
2023-02-03T05:19:59.035Z,2.83
2023-02-03T05:22:25.790Z,1.95
2023-02-03T05:24:52.553Z,4.88
2023-02-03T05:27:19.460Z,1.48
2023-02-03T05:29:46.226Z,3.15
2023-02-03T05:32:13.164Z,3.97
2023-02-03T05:34:42.235Z,3.00
2023-02-03T05:37:09.096Z,2.70
2023-02-03T05:39:35.800Z,3.13
2023-02-03T05:42:04.318Z,2.38
2023-02-03T05:44:31.222Z,3.08
2023-02-03T05:46:59.359Z,3.13
2023-02-03T05:49:26.434Z,3.00
2023-02-03T05:51:54.564Z,4.18
2023-02-03T05:54:24.374Z,4.53
2023-02-03T05:56:51.347Z,4.10
2023-02-03T05:59:18.128Z,2.72
2023-02-03T06:01:44.833Z,2.70
2023-02-03T06:04:11.714Z,5.68
2023-02-03T06:06:38.610Z,3.20
2023-02-03T06:09:08.414Z,2.50
2023-02-03T06:11:36.348Z,4.80
2023-02-03T06:14:03.761Z,3.63
2023-02-03T06:16:30.682Z,2.70
2023-02-03T06:21:26.751Z,2.53
2023-02-03T06:23:54.564Z,2.30
2023-02-03T06:26:21.365Z,3.15
2023-02-03T06:28:48.191Z,3.25
2023-02-03T06:31:14.985Z,3.17
2023-02-03T06:33:41.819Z,3.35
2023-02-03T06:36:08.820Z,5.13
2023-02-03T06:41:02.387Z,4.55
2023-02-03T06:43:29.191Z,3.50
2023-02-03T06:45:55.938Z,4.03
2023-02-03T06:48:23.723Z,3.42
2023-02-03T06:50:50.506Z,2.53
2023-02-03T06:53:17.333Z,4.65
2023-02-03T06:55:44.132Z,4.53
2023-02-03T06:58:10.895Z,3.75
2023-02-03T07:00:37.634Z,2.38
2023-02-03T07:03:04.511Z,2.88
2023-02-03T07:07:59.013Z,2.58
2023-02-03T07:10:26.126Z,2.47
2023-02-03T07:12:53.040Z,4.85
2023-02-03T07:15:19.955Z,2.97
2023-02-03T07:17:54.195Z,3.33
2023-02-03T07:20:22.297Z,3.72
2023-02-03T07:22:57.910Z,6.40
2023-02-03T07:25:25.400Z,4.03
2023-02-03T07:27:52.646Z,3.38
2023-02-03T07:30:19.823Z,5.43
2023-02-03T07:32:48.323Z,5.15
2023-02-03T07:35:15.237Z,5.70
2023-02-03T07:37:42.908Z,8.45
2023-02-03T07:40:11.578Z,2.80
2023-02-03T07:42:46.194Z,4.50
2023-02-03T07:45:15.007Z,2.30
2023-02-03T07:47:43.015Z,5.20
2023-02-03T07:50:11.362Z,5.53
2023-02-03T07:52:39.160Z,3.22
2023-02-03T07:55:06.683Z,3.72
2023-02-03T07:57:33.579Z,3.85
2023-02-03T08:00:00.300Z,4.45
2023-02-03T08:02:27.291Z,3.83
2023-02-03T08:07:20.744Z,3.20
2023-02-03T08:09:47.538Z,2.20
2023-02-03T08:12:14.290Z,4.78
2023-02-03T08:14:40.926Z,5.07
2023-02-03T08:17:07.649Z,6.50
2023-02-03T08:19:35.188Z,4.40
2023-02-03T08:22:02.035Z,3.05
2023-02-03T08:24:28.732Z,2.58
2023-02-03T08:26:55.489Z,3.20
2023-02-03T08:29:22.339Z,4.25
2023-02-03T08:31:49.134Z,3.38
2023-02-03T08:34:15.972Z,3.25
2023-02-03T08:36:44.150Z,4.68
2023-02-03T08:39:11.007Z,2.67
2023-02-03T08:44:04.832Z,2.83
2023-02-03T08:46:31.525Z,2.45
2023-02-03T08:48:58.340Z,2.60
2023-02-03T08:51:25.060Z,1.80
2023-02-03T08:53:52.328Z,4.07
2023-02-03T08:56:19.265Z,4.35
2023-02-03T09:01:15.382Z,4.25
2023-02-03T09:03:42.350Z,3.47
2023-02-03T09:08:38.674Z,2.55
2023-02-03T09:13:40.029Z,4.18
2023-02-03T09:16:08.221Z,2.72
2023-02-03T09:18:35.081Z,2.20
2023-02-03T09:21:13.978Z,3.67
2023-02-03T09:23:47.770Z,3.42
2023-02-03T09:26:16.926Z,2.78
2023-02-03T09:28:43.864Z,5.85
2023-02-03T09:33:39.991Z,3.33
2023-02-03T09:36:07.979Z,2.65
2023-02-03T09:38:35.232Z,2.03
2023-02-03T09:41:12.247Z,1.80
2023-02-03T09:44:05.768Z,3.22
2023-02-03T09:46:41.157Z,4.65
2023-02-03T09:49:50.363Z,2.63
2023-02-03T09:52:22.866Z,2.85
2023-02-03T09:54:58.672Z,4.13
2023-02-03T09:57:28.518Z,4.07
2023-02-03T09:59:58.282Z,3.35
2023-02-03T10:02:41.671Z,4.53
2023-02-03T10:05:14.951Z,4.18
2023-02-03T10:08:10.017Z,2.35
2023-02-03T10:11:09.410Z,5.35
2023-02-03T10:13:48.325Z,3.70
2023-02-03T10:16:29.974Z,2.83
2023-02-03T10:19:02.628Z,6.65
2023-02-03T10:21:34.663Z,13.57
2023-02-03T10:24:03.786Z,2.50
2023-02-03T10:26:30.670Z,3.20
2023-02-03T10:31:32.335Z,1.92
2023-02-03T10:34:11.862Z,2.85
2023-02-03T10:36:58.035Z,2.50
2023-02-03T10:39:39.352Z,2.85
2023-02-03T10:42:08.424Z,3.13
2023-02-03T10:44:49.079Z,1.80
2023-02-03T10:47:20.942Z,3.83
2023-02-03T10:49:50.920Z,2.95
2023-02-03T10:52:28.660Z,4.38
2023-02-03T10:54:56.494Z,4.10
2023-02-03T10:57:23.438Z,3.08
2023-02-03T11:02:29.324Z,3.85
2023-02-03T11:05:17.930Z,1.73
2023-02-03T11:07:45.156Z,1.75
2023-02-03T11:10:43.097Z,2.70
2023-02-03T11:13:21.236Z,3.05
2023-02-03T11:16:04.926Z,2.50
2023-02-03T11:18:37.490Z,2.78
2023-02-03T11:21:08.994Z,1.92
2023-02-03T11:23:36.340Z,2.22
2023-02-03T11:26:20.069Z,3.85
2023-02-03T11:28:49.284Z,2.15
2023-02-03T11:31:25.136Z,2.97
2023-02-03T11:33:56.559Z,2.63
2023-02-03T11:36:26.421Z,4.03
2023-02-03T11:39:12.109Z,2.85
2023-02-03T11:41:40.471Z,2.95
2023-02-03T11:44:18.504Z,1.45
2023-02-03T11:46:48.343Z,2.75
2023-02-03T11:49:38.818Z,2.88
2023-02-03T11:52:22.269Z,3.40
2023-02-03T11:55:12.734Z,3.90
2023-02-03T11:58:03.485Z,3.33
2023-02-03T12:01:01.576Z,3.85
2023-02-03T12:04:01.003Z,3.42
2023-02-03T12:06:35.811Z,3.25
2023-02-03T12:09:22.761Z,2.28
2023-02-03T12:12:02.288Z,3.90
2023-02-03T12:14:56.982Z,3.85
2023-02-03T12:17:49.018Z,1.63
2023-02-03T12:20:29.077Z,2.00
2023-02-03T12:23:22.319Z,5.88
2023-02-03T12:26:12.003Z,3.47
2023-02-03T12:28:45.500Z,1.73
2023-02-03T12:31:41.480Z,2.92
2023-02-03T12:34:27.147Z,1.35
2023-02-03T12:37:10.022Z,1.90
2023-02-03T12:39:49.957Z,2.78
2023-02-03T12:42:29.636Z,2.03
2023-02-03T12:45:09.456Z,2.95
2023-02-03T12:48:00.963Z,1.85
2023-02-03T12:50:45.943Z,2.03
2023-02-03T12:53:33.028Z,1.40
2023-02-03T12:56:13.953Z,2.25
2023-02-03T12:58:58.487Z,3.63
2023-02-03T13:01:49.377Z,1.08
2023-02-03T13:04:27.716Z,1.15
2023-02-03T13:07:07.553Z,0.95
2023-02-03T13:09:58.984Z,2.33
2023-02-03T13:12:29.626Z,1.13
2023-02-03T13:15:24.772Z,1.33
2023-02-03T13:18:15.896Z,1.63
2023-02-03T13:20:42.812Z,1.17
2023-02-03T13:23:15.090Z,0.90
2023-02-03T13:26:19.912Z,0.88
2023-02-03T13:29:01.596Z,1.52
2023-02-03T13:31:43.384Z,0.85
2023-02-03T13:34:38.509Z,1.13
2023-02-03T13:37:35.659Z,1.67
2023-02-03T13:40:21.364Z,0.98
2023-02-03T13:42:55.389Z,2.03
2023-02-03T13:45:38.604Z,1.38
2023-02-03T13:48:20.420Z,1.25
2023-02-03T13:50:49.252Z,1.98
2023-02-03T13:53:18.705Z,2.63
2023-02-03T13:55:55.288Z,3.08
2023-02-03T13:58:25.974Z,1.27
2023-02-03T14:00:52.846Z,1.05
2023-02-03T14:05:57.564Z,3.80
2023-02-03T14:08:30.247Z,1.65
2023-02-03T14:11:34.481Z,1.50
2023-02-03T14:14:10.192Z,1.05
2023-02-03T14:16:54.530Z,1.40
2023-02-03T14:19:31.320Z,0.93
2023-02-03T14:22:06.726Z,1.75
2023-02-03T14:24:35.576Z,1.88
2023-02-03T14:27:05.211Z,1.55
2023-02-03T14:29:37.423Z,2.15
2023-02-03T14:32:14.214Z,2.08
2023-02-03T14:34:46.853Z,1.90
2023-02-03T14:37:22.841Z,1.40
2023-02-03T14:40:11.310Z,2.38
2023-02-03T14:43:11.626Z,0.63
2023-02-03T14:45:57.710Z,2.80
2023-02-03T14:48:37.800Z,4.05
2023-02-03T14:51:36.735Z,2.70
2023-02-03T14:54:25.322Z,2.30
2023-02-03T14:57:16.127Z,1.75
2023-02-03T15:00:03.485Z,1.80
2023-02-03T15:02:31.674Z,1.90
2023-02-03T15:05:23.708Z,1.77
2023-02-03T15:07:52.008Z,2.67
2023-02-03T15:10:43.879Z,2.17
2023-02-03T15:13:31.285Z,1.92
2023-02-03T15:16:01.801Z,2.05
2023-02-03T15:18:36.300Z,0.85
2023-02-03T15:21:05.144Z,4.32
2023-02-03T15:23:47.859Z,15.52
2023-02-03T15:26:26.217Z,3.60
2023-02-03T15:28:58.348Z,3.92
2023-02-03T15:31:34.175Z,6.07
2023-02-03T15:34:06.864Z,5.68
2023-02-03T15:36:48.277Z,2.13
2023-02-03T15:39:39.260Z,1.58
2023-02-03T15:42:16.437Z,2.42
2023-02-03T15:45:22.231Z,1.05
2023-02-03T15:48:07.813Z,0.98
2023-02-03T15:53:58.851Z,2.03
2023-02-03T15:56:41.425Z,1.30
2023-02-03T15:59:23.271Z,1.05
2023-02-03T16:01:54.413Z,1.83
2023-02-03T16:04:23.466Z,1.52
2023-02-03T16:06:54.642Z,1.00
2023-02-03T16:09:35.648Z,2.10
2023-02-03T16:12:34.544Z,2.92
2023-02-03T16:17:31.541Z,1.30
2023-02-03T16:20:10.739Z,1.98
2023-02-03T16:23:00.372Z,2.08
2023-02-03T16:25:30.656Z,1.58
2023-02-03T16:28:20.765Z,3.30
2023-02-03T16:31:31.739Z,2.30
2023-02-03T16:34:19.340Z,1.50
2023-02-03T16:37:04.576Z,2.75
2023-02-03T16:39:49.877Z,1.23
2023-02-03T16:42:39.741Z,1.73
2023-02-03T16:45:36.653Z,1.15
2023-02-03T16:48:35.256Z,1.63
2023-02-03T16:51:07.140Z,1.77
2023-02-03T16:53:41.027Z,2.50
2023-02-03T16:56:13.091Z,2.22
2023-02-03T16:58:40.265Z,1.05
2023-02-03T17:03:35.686Z,2.65
2023-02-03T17:06:08.797Z,1.80
2023-02-03T17:08:37.009Z,3.70
2023-02-03T17:11:06.929Z,1.73
2023-02-03T17:13:34.529Z,1.85
2023-02-03T17:16:01.354Z,4.30
2023-02-03T17:18:28.439Z,2.08
2023-02-03T17:23:24.910Z,3.65
2023-02-03T17:25:51.791Z,1.63
2023-02-03T17:28:18.790Z,3.10
2023-02-03T17:30:45.883Z,2.45
2023-02-03T17:33:13.075Z,1.98
2023-02-03T17:35:43.984Z,2.25
2023-02-03T17:38:13.329Z,2.47
2023-02-03T17:54:29.515Z,3.47
2023-02-03T17:56:56.413Z,3.22
2023-02-03T18:01:50.021Z,2.38
2023-02-03T18:04:16.971Z,3.47
2023-02-03T18:06:44.015Z,5.03
2023-02-03T18:09:13.908Z,2.75
2023-02-03T18:11:40.949Z,2.63
2023-02-03T18:16:36.210Z,3.75
2023-02-03T18:19:08.854Z,3.42
2023-02-03T18:21:38.840Z,4.35
2023-02-03T18:24:06.056Z,3.53
2023-02-03T18:26:36.714Z,3.35
2023-02-03T18:29:05.356Z,4.57
2023-02-03T18:31:33.022Z,3.63
2023-02-03T18:34:04.014Z,4.75
2023-02-03T18:36:32.022Z,5.38
2023-02-03T18:38:58.815Z,6.47
2023-02-03T18:41:26.587Z,7.35
2023-02-03T18:43:53.801Z,8.93
2023-02-03T18:46:26.863Z,8.50
2023-02-03T18:48:54.275Z,6.45
2023-02-03T18:51:21.847Z,13.93
2023-02-03T18:53:49.886Z,7.28
2023-02-03T18:56:28.274Z,8.35
2023-02-03T18:58:55.214Z,10.75
2023-02-03T19:03:59.392Z,9.55
2023-02-03T19:06:28.216Z,11.93
2023-02-03T19:08:54.937Z,4.60
2023-02-03T19:11:23.251Z,7.72
2023-02-03T19:13:50.316Z,9.10
2023-02-03T19:18:45.593Z,9.27
2023-02-03T19:21:13.566Z,14.60
2023-02-03T19:23:42.031Z,7.80
2023-02-03T19:26:10.032Z,9.02
2023-02-03T19:28:37.293Z,12.20
2023-02-03T19:31:08.406Z,8.60
2023-02-03T19:33:36.607Z,11.73
2023-02-03T19:36:05.086Z,11.98
2023-02-03T19:38:32.060Z,8.68
2023-02-03T19:43:25.933Z,7.85
2023-02-03T19:45:52.733Z,13.85
2023-02-03T19:48:19.668Z,12.32
2023-02-03T19:50:49.703Z,9.27
2023-02-03T19:53:17.920Z,8.88
2023-02-03T19:55:46.059Z,13.60
2023-02-03T19:58:13.871Z,18.35
2023-02-03T20:00:41.461Z,14.25
2023-02-03T20:03:08.620Z,12.57
2023-02-03T20:05:36.268Z,10.38
2023-02-03T20:08:03.882Z,13.73
2023-02-03T20:10:32.505Z,12.45
2023-02-03T20:12:59.825Z,12.70
2023-02-03T20:15:27.051Z,11.13
2023-02-03T20:20:21.182Z,9.23
2023-02-03T20:25:15.541Z,13.18
2023-02-03T20:27:42.782Z,19.17
2023-02-03T20:30:10.471Z,11.02
2023-02-03T20:32:37.619Z,14.23
2023-02-03T20:35:06.223Z,11.80
2023-02-03T20:37:33.439Z,12.20
2023-02-03T20:40:00.267Z,9.20
2023-02-03T20:42:27.204Z,11.35
2023-02-03T20:44:55.100Z,12.52
2023-02-03T20:47:22.841Z,13.38
2023-02-03T20:49:50.077Z,15.48
2023-02-03T20:52:20.909Z,9.00
2023-02-03T20:54:47.950Z,12.23
2023-02-03T20:57:17.564Z,15.15
2023-02-03T20:59:45.160Z,11.93
2023-02-03T21:02:31.199Z,11.95
2023-02-03T21:04:59.090Z,12.35
2023-02-03T21:07:30.890Z,14.43
2023-02-03T21:09:59.873Z,17.42
2023-02-03T21:12:28.459Z,20.35
2023-02-03T21:14:57.005Z,13.07
2023-02-03T21:17:26.416Z,11.90
2023-02-03T21:19:54.982Z,13.98
2023-02-03T21:22:29.834Z,10.93
2023-02-03T21:24:58.929Z,14.57
2023-02-03T21:27:27.318Z,16.77
2023-02-03T21:29:57.106Z,15.50
2023-02-03T21:32:38.761Z,14.10
2023-02-03T21:35:41.108Z,16.63
2023-02-03T21:38:39.774Z,12.88
2023-02-03T21:41:17.603Z,12.15
2023-02-03T21:43:47.799Z,16.63
2023-02-03T21:46:27.938Z,15.82
2023-02-03T21:48:58.910Z,13.88
2023-02-03T21:51:29.517Z,11.52
2023-02-03T21:53:59.061Z,12.32
2023-02-03T21:56:37.193Z,13.45
2023-02-03T21:59:04.957Z,17.90
2023-02-03T22:01:37.255Z,17.58
2023-02-03T22:04:06.460Z,14.00
2023-02-03T22:06:49.019Z,13.20
2023-02-03T22:09:18.170Z,13.48
2023-02-03T22:11:45.397Z,11.25
2023-02-03T22:14:16.554Z,15.43
2023-02-03T22:16:44.146Z,15.80
2023-02-03T22:19:11.199Z,12.85
2023-02-03T22:24:05.190Z,14.40
2023-02-03T22:26:31.933Z,14.15
2023-02-03T22:28:58.690Z,15.93
2023-02-03T22:31:25.495Z,14.40
2023-02-03T22:33:52.266Z,13.45
2023-02-03T22:36:19.094Z,10.43
2023-02-03T22:38:45.784Z,14.80
2023-02-03T22:41:12.969Z,15.38
2023-02-03T22:43:40.136Z,12.18
2023-02-03T22:46:07.627Z,16.67
2023-02-03T22:48:34.840Z,13.52
2023-02-03T22:51:01.700Z,13.02
2023-02-03T22:53:28.686Z,13.20
2023-02-03T22:55:55.827Z,18.15
2023-02-03T22:58:22.818Z,12.80
2023-02-03T23:03:16.470Z,12.85
2023-02-03T23:05:43.576Z,12.35
2023-02-03T23:08:10.398Z,10.57
2023-02-03T23:10:37.192Z,16.38
2023-02-03T23:13:04.013Z,15.43
2023-02-03T23:15:30.888Z,13.82
2023-02-03T23:20:25.050Z,12.43
2023-02-03T23:22:51.857Z,19.92
2023-02-03T23:25:18.718Z,11.70
2023-02-03T23:27:45.495Z,12.32
2023-02-03T23:30:13.408Z,9.00
2023-02-03T23:32:40.304Z,12.50
2023-02-03T23:35:26.076Z,10.82
2023-02-03T23:37:52.748Z,11.18
2023-02-03T23:40:19.646Z,11.45
2023-02-03T23:42:46.475Z,20.42
2023-02-03T23:45:13.243Z,12.05
2023-02-03T23:47:42.267Z,13.02
2023-02-03T23:50:10.623Z,10.95
2023-02-03T23:52:37.731Z,11.30
2023-02-03T23:55:10.428Z,11.27
2023-02-03T23:57:37.701Z,9.57
